Time;durP1;ratioP1;P1;durP2;ratioP2;P2;SDS_P1;SDS_P2;PMS_P1;PMS_P2;Temp;Humidity;BMP_temperature;BMP_pressure;BME280_temperature;BME280_humidity;BME280_pressure;Samples;Min_cycle;Max_cycle;Signal;HPM_P1;HPM_P2
2022/07/31 00:00:18;;;;;;;3.38;1.42;;;22.80;99.90;;;;;;4956961;29;20127;-80
2022/07/31 00:02:44;;;;;;;5.38;1.40;;;22.80;99.90;;;;;;4956425;29;20023;-80
2022/07/31 00:05:10;;;;;;;2.28;1.20;;;22.80;99.90;;;;;;4956310;28;20395;-80
2022/07/31 00:07:36;;;;;;;3.28;1.30;;;22.70;99.90;;;;;;4956699;29;20046;-80
2022/07/31 00:10:03;;;;;;;3.53;1.38;;;22.70;99.90;;;;;;4956323;29;20384;-80
2022/07/31 00:12:29;;;;;;;2.67;1.38;;;22.50;99.90;;;;;;4957250;29;20023;-80
2022/07/31 00:14:54;;;;;;;3.35;1.50;;;22.50;99.90;;;;;;4955770;28;20049;-80
2022/07/31 00:17:20;;;;;;;2.38;1.42;;;22.60;99.90;;;;;;4956701;29;20031;-80
2022/07/31 00:19:46;;;;;;;1.95;1.27;;;22.40;99.90;;;;;;4956602;29;20032;-81
2022/07/31 00:22:12;;;;;;;2.05;1.10;;;22.50;99.90;;;;;;4956383;29;20046;-80
2022/07/31 00:24:38;;;;;;;3.85;1.55;;;22.60;99.90;;;;;;4955018;28;20090;-80
2022/07/31 00:27:04;;;;;;;7.75;1.63;;;22.60;99.90;;;;;;4956481;29;20031;-80
2022/07/31 00:29:30;;;;;;;2.08;1.35;;;22.50;99.90;;;;;;4956015;29;20027;-80
2022/07/31 00:31:56;;;;;;;3.65;1.75;;;22.50;99.90;;;;;;4956228;29;20035;-80
2022/07/31 00:34:22;;;;;;;1.83;1.30;;;22.50;99.90;;;;;;4956573;29;20117;-80
2022/07/31 00:36:48;;;;;;;2.97;1.52;;;22.50;99.90;;;;;;4956561;29;20031;-80
2022/07/31 00:39:14;;;;;;;2.78;1.55;;;22.40;99.90;;;;;;4956288;29;20372;-80
2022/07/31 00:41:42;;;;;;;4.53;1.50;;;22.50;99.90;;;;;;4955736;29;20495;-80
2022/07/31 00:44:09;;;;;;;3.20;1.35;;;22.50;99.90;;;;;;4955447;29;20392;-80
2022/07/31 00:46:35;;;;;;;1.92;1.30;;;22.50;99.90;;;;;;4956340;29;20110;-80
2022/07/31 00:49:00;;;;;;;3.40;1.88;;;22.30;99.90;;;;;;4956407;29;20523;-80
2022/07/31 00:51:26;;;;;;;2.25;1.23;;;22.30;99.90;;;;;;4955464;28;20044;-80
2022/07/31 00:53:52;;;;;;;4.10;1.85;;;22.40;99.90;;;;;;4955689;29;20023;-80
2022/07/31 00:56:18;;;;;;;3.95;1.40;;;22.30;99.90;;;;;;4956008;29;20035;-80
2022/07/31 00:58:44;;;;;;;4.30;1.88;;;22.20;99.90;;;;;;4938210;29;20062;-80
2022/07/31 01:01:09;;;;;;;2.85;1.52;;;22.30;99.90;;;;;;4955739;29;20034;-80
2022/07/31 01:03:35;;;;;;;3.72;1.95;;;22.20;99.90;;;;;;4938347;29;20031;-80
2022/07/31 01:06:02;;;;;;;4.82;1.52;;;22.20;99.90;;;;;;4955191;29;20035;-80
2022/07/31 01:08:28;;;;;;;5.40;1.70;;;22.20;99.90;;;;;;4955363;29;20027;-80
2022/07/31 01:11:09;;;;;;;5.25;1.65;;;22.10;99.90;;;;;;4938298;29;20027;-80
2022/07/31 01:13:39;;;;;;;5.77;1.77;;;22.00;99.90;;;;;;4919432;29;20034;-80
2022/07/31 01:16:08;;;;;;;4.07;1.70;;;22.00;99.90;;;;;;4936363;29;20264;-80
2022/07/31 01:18:36;;;;;;;3.22;1.67;;;22.10;99.90;;;;;;4936500;29;20115;-80
2022/07/31 01:21:15;;;;;;;8.93;1.80;;;22.10;99.90;;;;;;4936303;29;20039;-80
2022/07/31 01:24:07;;;;;;;3.05;1.38;;;22.10;99.90;;;;;;4936201;29;20578;-80
2022/07/31 01:26:41;;;;;;;5.30;1.60;;;22.10;99.90;;;;;;4926643;29;20027;-80
2022/07/31 01:29:19;;;;;;;3.50;1.73;;;22.10;99.90;;;;;;4930662;29;20038;-80
2022/07/31 01:31:52;;;;;;;3.63;1.58;;;22.10;99.90;;;;;;4954976;29;20066;-80
2022/07/31 01:34:36;;;;;;;5.97;1.65;;;22.10;99.90;;;;;;4955330;29;20090;-80
2022/07/31 01:37:26;;;;;;;2.97;1.38;;;22.10;99.90;;;;;;4954767;29;20023;-80
2022/07/31 01:40:03;;;;;;;8.43;1.73;;;22.10;99.90;;;;;;4937867;29;20039;-80
2022/07/31 01:42:30;;;;;;;4.20;1.70;;;22.00;99.90;;;;;;4970555;28;20037;-80
2022/07/31 01:44:59;;;;;;;4.45;1.40;;;22.00;99.90;;;;;;4938602;29;20046;-80
2022/07/31 01:47:26;;;;;;;3.40;1.70;;;21.90;99.90;;;;;;4955058;29;20050;-80
2022/07/31 01:49:54;;;;;;;6.57;1.70;;;21.90;99.90;;;;;;4954156;28;20027;-80
2022/07/31 01:52:24;;;;;;;4.25;1.92;;;21.90;99.90;;;;;;4954665;29;20055;-80
2022/07/31 01:54:51;;;;;;;3.60;1.60;;;21.80;99.90;;;;;;4954202;29;20031;-80
2022/07/31 01:57:18;;;;;;;3.38;1.60;;;21.80;99.90;;;;;;4954309;29;20031;-80
2022/07/31 01:59:46;;;;;;;3.75;1.88;;;21.70;99.90;;;;;;4954593;29;20034;-80
2022/07/31 02:02:13;;;;;;;3.80;1.80;;;21.60;99.90;;;;;;4954583;29;20034;-80
2022/07/31 02:04:39;;;;;;;4.65;1.50;;;21.60;99.90;;;;;;4954903;29;20028;-80
2022/07/31 02:07:07;;;;;;;4.32;1.60;;;21.60;99.90;;;;;;4937250;29;20027;-80
2022/07/31 02:09:34;;;;;;;3.67;1.75;;;21.70;99.90;;;;;;4954739;29;20105;-80
2022/07/31 02:12:01;;;;;;;4.70;1.80;;;21.70;99.90;;;;;;4956555;28;20111;-80
2022/07/31 02:14:27;;;;;;;3.53;1.80;;;21.70;99.90;;;;;;4942307;28;20510;-80
2022/07/31 02:16:55;;;;;;;3.50;1.85;;;21.70;99.90;;;;;;4973384;28;20517;-80
2022/07/31 02:19:22;;;;;;;4.78;2.08;;;21.60;99.90;;;;;;4954670;29;20035;-80
2022/07/31 02:21:48;;;;;;;3.33;1.65;;;21.60;99.90;;;;;;4954039;29;20023;-80
2022/07/31 02:24:14;;;;;;;3.83;1.60;;;21.60;99.90;;;;;;4954313;29;20376;-80
2022/07/31 02:26:40;;;;;;;2.33;1.58;;;21.60;99.90;;;;;;4937241;29;20399;-80
2022/07/31 02:29:09;;;;;;;7.60;2.35;;;21.40;99.90;;;;;;4954045;29;20094;-80
2022/07/31 02:31:36;;;;;;;4.40;1.88;;;21.20;99.90;;;;;;4953736;29;20110;-80
2022/07/31 02:34:01;;;;;;;3.20;2.05;;;21.30;99.90;;;;;;4954230;29;20027;-80
2022/07/31 02:36:30;;;;;;;4.25;2.10;;;21.40;99.90;;;;;;4937107;29;20050;-80
2022/07/31 02:38:57;;;;;;;3.47;1.95;;;21.40;99.90;;;;;;4954278;29;20097;-80
2022/07/31 02:41:23;;;;;;;3.25;1.73;;;21.40;99.90;;;;;;4936615;29;20078;-80
2022/07/31 02:43:50;;;;;;;5.40;1.67;;;21.40;99.90;;;;;;4953842;29;20031;-80
2022/07/31 02:46:17;;;;;;;7.68;1.75;;;21.30;99.90;;;;;;4941869;28;20042;-80
2022/07/31 02:48:43;;;;;;;2.17;1.63;;;21.40;99.90;;;;;;4960287;28;20038;-80
2022/07/31 02:51:09;;;;;;;4.05;2.33;;;21.40;99.90;;;;;;4953550;28;20523;-80
2022/07/31 02:53:36;;;;;;;2.75;1.63;;;21.40;99.90;;;;;;4954111;29;20035;-80
2022/07/31 02:56:04;;;;;;;3.92;1.48;;;21.40;99.90;;;;;;4953415;29;20026;-80
2022/07/31 02:58:30;;;;;;;5.53;1.92;;;21.30;99.90;;;;;;4954086;29;20026;-80
2022/07/31 03:01:01;;;;;;;4.75;1.58;;;21.20;99.90;;;;;;4953782;29;20035;-80
2022/07/31 03:03:26;;;;;;;4.13;1.93;;;21.10;99.90;;;;;;4953382;29;20102;-80
2022/07/31 03:05:52;;;;;;;4.55;1.80;;;20.90;99.90;;;;;;4936498;29;20186;-80
2022/07/31 03:08:18;;;;;;;7.78;1.75;;;21.10;99.90;;;;;;4953770;29;20030;-80
2022/07/31 03:10:44;;;;;;;3.65;1.60;;;21.10;99.90;;;;;;4936368;29;20062;-80
2022/07/31 03:13:10;;;;;;;3.08;1.67;;;21.10;99.90;;;;;;4953061;29;20491;-80
2022/07/31 03:15:38;;;;;;;3.05;2.00;;;21.10;99.90;;;;;;4954061;28;20035;-80
2022/07/31 03:18:05;;;;;;;5.68;1.90;;;21.10;99.90;;;;;;4954019;29;20033;-80
2022/07/31 03:20:32;;;;;;;4.75;1.95;;;20.80;99.90;;;;;;4953509;29;20019;-80
2022/07/31 03:22:59;;;;;;;2.40;1.58;;;20.80;99.90;;;;;;4953621;29;20109;-80
2022/07/31 03:25:25;;;;;;;2.72;1.63;;;20.70;99.90;;;;;;4953524;29;20027;-80
2022/07/31 03:27:51;;;;;;;2.92;1.95;;;20.70;99.90;;;;;;4953739;29;20034;-80
2022/07/31 03:30:18;;;;;;;3.17;1.92;;;20.80;99.90;;;;;;4953887;29;20024;-80
2022/07/31 03:32:44;;;;;;;7.35;2.25;;;20.80;99.90;;;;;;4953738;29;20041;-80
2022/07/31 03:35:10;;;;;;;6.38;2.28;;;20.50;99.90;;;;;;4953075;29;20053;-80
2022/07/31 03:37:35;;;;;;;6.45;2.40;;;20.60;99.90;;;;;;4953644;29;20074;-80
2022/07/31 03:40:01;;;;;;;8.52;2.25;;;20.60;99.90;;;;;;4953230;29;20035;-80
2022/07/31 03:42:28;;;;;;;4.55;1.88;;;20.70;99.90;;;;;;4953459;29;20034;-80
2022/07/31 03:44:55;;;;;;;3.60;1.90;;;20.80;99.90;;;;;;4953686;29;20053;-80
2022/07/31 03:47:20;;;;;;;4.00;2.00;;;20.90;99.90;;;;;;4953343;29;20506;-80
2022/07/31 03:49:47;;;;;;;4.05;1.70;;;20.90;99.90;;;;;;4953486;28;20084;-80
2022/07/31 03:52:13;;;;;;;3.45;1.80;;;20.90;99.90;;;;;;4952737;29;20051;-80
2022/07/31 03:54:39;;;;;;;5.78;1.77;;;20.90;99.90;;;;;;4953244;29;20034;-80
2022/07/31 03:57:07;;;;;;;5.30;1.85;;;20.80;99.90;;;;;;4953293;29;20061;-80
2022/07/31 03:59:33;;;;;;;5.28;2.17;;;20.80;99.90;;;;;;4956146;28;20035;-80
2022/07/31 04:02:00;;;;;;;5.43;1.80;;;20.70;99.90;;;;;;4956882;29;20372;-80
2022/07/31 04:04:25;;;;;;;3.90;2.25;;;20.70;99.90;;;;;;4957101;29;20024;-80
2022/07/31 04:06:51;;;;;;;2.30;1.67;;;20.80;99.90;;;;;;4956783;29;20030;-80
2022/07/31 04:09:19;;;;;;;8.32;1.88;;;20.70;99.90;;;;;;4939174;29;20023;-80
2022/07/31 04:11:44;;;;;;;3.65;2.13;;;20.60;99.90;;;;;;4956722;29;20020;-80
2022/07/31 04:14:10;;;;;;;3.75;1.98;;;20.60;99.90;;;;;;4956761;29;20026;-80
2022/07/31 04:16:36;;;;;;;4.70;2.10;;;20.40;99.90;;;;;;4956884;29;20110;-80
2022/07/31 04:19:01;;;;;;;4.70;2.13;;;20.50;99.90;;;;;;4956477;29;20380;-80
2022/07/31 04:21:27;;;;;;;4.78;2.15;;;20.50;99.90;;;;;;4955515;28;20400;-80
2022/07/31 04:23:53;;;;;;;4.47;1.92;;;20.60;99.90;;;;;;4956458;29;20106;-80
2022/07/31 04:26:19;;;;;;;3.25;2.00;;;20.60;99.90;;;;;;4956276;29;20458;-80
2022/07/31 04:28:44;;;;;;;3.47;2.10;;;20.60;99.90;;;;;;4956363;29;20020;-80
2022/07/31 04:31:10;;;;;;;4.72;2.17;;;20.60;99.90;;;;;;4956241;29;20027;-80
2022/07/31 04:33:36;;;;;;;4.97;2.40;;;20.50;99.90;;;;;;4956364;29;20067;-80
2022/07/31 04:36:01;;;;;;;5.38;2.08;;;20.50;99.90;;;;;;4956256;29;20039;-80
2022/07/31 04:38:28;;;;;;;7.18;2.42;;;20.50;99.90;;;;;;4938931;29;20020;-80
2022/07/31 04:40:54;;;;;;;6.28;2.10;;;20.50;99.90;;;;;;4956246;29;20058;-80
2022/07/31 04:43:19;;;;;;;3.35;2.10;;;20.50;99.90;;;;;;4955882;29;20067;-80
2022/07/31 04:45:45;;;;;;;5.10;2.67;;;20.50;99.90;;;;;;4956049;29;20046;-80
2022/07/31 04:48:11;;;;;;;4.15;2.40;;;20.40;99.90;;;;;;4955934;29;20027;-80
2022/07/31 04:50:37;;;;;;;4.85;2.15;;;20.30;99.90;;;;;;4955502;28;20043;-80
2022/07/31 04:53:03;;;;;;;5.90;2.33;;;20.30;99.90;;;;;;4955626;29;20102;-80
2022/07/31 04:55:29;;;;;;;2.95;1.95;;;20.40;99.90;;;;;;4955976;29;20031;-80
2022/07/31 04:57:54;;;;;;;4.05;2.10;;;20.40;99.90;;;;;;4956107;29;20090;-80
2022/07/31 05:00:21;;;;;;;9.02;2.70;;;20.50;99.90;;;;;;4955627;29;20031;-80
2022/07/31 05:02:46;;;;;;;5.40;2.75;;;20.40;99.90;;;;;;4955862;29;20505;-80
2022/07/31 05:05:12;;;;;;;3.83;2.30;;;20.40;99.90;;;;;;4955421;29;20027;-80
2022/07/31 05:07:38;;;;;;;5.55;2.38;;;20.30;99.90;;;;;;4955221;29;20027;-80
2022/07/31 05:10:04;;;;;;;12.02;2.55;;;20.40;99.90;;;;;;4955105;28;20031;-80
2022/07/31 05:12:33;;;;;;;5.60;2.33;;;20.50;99.90;;;;;;4938887;29;20032;-80
2022/07/31 05:14:58;;;;;;;4.53;2.25;;;20.40;99.90;;;;;;4955371;28;20487;-80
2022/07/31 05:17:24;;;;;;;6.75;2.20;;;20.30;99.90;;;;;;4938301;29;20282;-80
2022/07/31 05:19:50;;;;;;;6.35;2.42;;;20.30;99.90;;;;;;4955253;29;20446;-80
2022/07/31 05:22:15;;;;;;;3.05;2.20;;;20.30;99.90;;;;;;4955596;29;20534;-80
2022/07/31 05:24:41;;;;;;;4.18;2.55;;;20.20;99.90;;;;;;4955592;29;20139;-80
2022/07/31 05:27:07;;;;;;;4.32;2.30;;;20.20;99.90;;;;;;4955327;29;20387;-80
2022/07/31 05:29:33;;;;;;;2.60;1.80;;;20.40;99.90;;;;;;4954781;29;20038;-80
2022/07/31 05:32:00;;;;;;;3.38;1.95;;;20.50;99.90;;;;;;4955719;29;20019;-80
2022/07/31 05:34:25;;;;;;;8.50;2.00;;;20.30;99.90;;;;;;4954729;29;20035;-80
2022/07/31 05:36:51;;;;;;;5.45;2.25;;;20.20;99.90;;;;;;4955221;29;20381;-80
2022/07/31 05:39:17;;;;;;;5.68;1.80;;;20.30;99.90;;;;;;4954698;29;20082;-80
2022/07/31 05:41:42;;;;;;;10.70;2.22;;;20.30;99.90;;;;;;4938309;29;20023;-80
2022/07/31 05:44:08;;;;;;;4.25;2.17;;;20.20;99.90;;;;;;4954858;29;20031;-80
2022/07/31 05:46:34;;;;;;;5.60;2.50;;;20.30;99.90;;;;;;4955108;29;20019;-80
2022/07/31 05:49:00;;;;;;;6.50;2.47;;;20.40;99.90;;;;;;4954332;29;20082;-80
2022/07/31 05:51:25;;;;;;;7.63;2.25;;;20.40;99.90;;;;;;4954401;29;20051;-80
2022/07/31 05:53:51;;;;;;;4.28;2.38;;;20.40;99.90;;;;;;4937808;29;20491;-80
2022/07/31 05:56:16;;;;;;;4.70;2.42;;;20.30;99.90;;;;;;4954719;29;20019;-80
2022/07/31 05:58:44;;;;;;;3.10;2.17;;;20.40;99.90;;;;;;4954803;29;20450;-80
2022/07/31 06:01:10;;;;;;;5.50;2.40;;;20.40;99.90;;;;;;4954896;29;20031;-80
2022/07/31 06:03:35;;;;;;;4.40;2.40;;;20.50;99.90;;;;;;4954063;29;20196;-80
2022/07/31 06:06:04;;;;;;;4.13;1.80;;;20.40;99.90;;;;;;4954841;29;20101;-80
2022/07/31 06:08:30;;;;;;;6.53;2.10;;;20.50;99.90;;;;;;4935228;29;20134;-80
2022/07/31 06:10:56;;;;;;;3.72;2.60;;;20.50;99.90;;;;;;4935942;29;20034;-80
2022/07/31 06:13:26;;;;;;;5.68;2.35;;;20.40;99.90;;;;;;4935085;29;20028;-80
2022/07/31 06:15:52;;;;;;;6.32;2.45;;;20.50;99.90;;;;;;4935624;29;20034;-80
2022/07/31 06:18:18;;;;;;;5.80;2.50;;;20.60;99.90;;;;;;4935226;29;20023;-80
2022/07/31 06:20:44;;;;;;;6.80;2.30;;;20.50;99.90;;;;;;4935344;29;20387;-80
2022/07/31 06:23:10;;;;;;;4.82;2.15;;;20.50;99.90;;;;;;4953561;29;20041;-80
2022/07/31 06:25:36;;;;;;;4.90;2.03;;;20.60;99.90;;;;;;4937291;29;20025;-80
2022/07/31 06:28:02;;;;;;;3.88;2.20;;;20.60;99.90;;;;;;4954022;29;20031;-80
2022/07/31 06:30:27;;;;;;;4.78;2.13;;;20.70;99.90;;;;;;4954099;29;20102;-80
2022/07/31 06:32:53;;;;;;;4.50;2.08;;;20.80;99.90;;;;;;4953824;29;20035;-80
2022/07/31 06:35:19;;;;;;;6.85;2.20;;;20.80;99.90;;;;;;4954195;29;20027;-80
2022/07/31 06:37:44;;;;;;;4.28;2.38;;;20.90;99.90;;;;;;4954079;29;20035;-80
2022/07/31 06:40:11;;;;;;;6.22;2.00;;;21.00;99.90;;;;;;4953945;29;20491;-80
2022/07/31 06:42:37;;;;;;;4.55;2.50;;;21.00;99.90;;;;;;4953862;28;20049;-80
2022/07/31 06:45:03;;;;;;;3.75;2.10;;;21.00;99.90;;;;;;4936813;29;20020;-80
2022/07/31 06:47:28;;;;;;;5.07;2.28;;;21.10;99.90;;;;;;4953612;29;20035;-80
2022/07/31 06:49:54;;;;;;;4.85;2.30;;;21.00;99.90;;;;;;4953993;29;20078;-80
2022/07/31 06:52:20;;;;;;;4.82;2.20;;;21.10;99.90;;;;;;4953787;29;20042;-80
2022/07/31 06:54:46;;;;;;;4.82;2.28;;;21.10;99.90;;;;;;4953589;29;20387;-80
2022/07/31 06:57:12;;;;;;;6.20;2.20;;;21.10;99.90;;;;;;4953902;29;20101;-80
2022/07/31 06:59:38;;;;;;;11.35;2.60;;;21.10;99.90;;;;;;4953791;29;20027;-80
2022/07/31 07:02:04;;;;;;;11.57;2.45;;;21.30;99.90;;;;;;4953665;29;20032;-79
2022/07/31 07:04:30;;;;;;;4.38;2.20;;;21.40;99.90;;;;;;4953214;29;20023;-78
2022/07/31 07:06:55;;;;;;;12.88;2.20;;;21.50;99.90;;;;;;4954233;29;20102;-79
2022/07/31 07:09:22;;;;;;;3.67;2.03;;;21.50;99.90;;;;;;4953371;28;20087;-78
2022/07/31 07:11:48;;;;;;;4.97;1.90;;;21.50;99.90;;;;;;4953337;29;20046;-78
2022/07/31 07:14:15;;;;;;;4.28;1.88;;;21.50;99.90;;;;;;4953380;29;20495;-77
2022/07/31 07:16:40;;;;;;;6.70;2.08;;;21.60;99.90;;;;;;4953248;29;20030;-77
2022/07/31 07:19:06;;;;;;;9.95;2.55;;;21.60;99.90;;;;;;4953791;28;20039;-77
2022/07/31 07:21:31;;;;;;;4.40;2.25;;;21.70;99.90;;;;;;4959406;28;20041;-82
2022/07/31 07:23:57;;;;;;;4.15;1.80;;;21.70;99.90;;;;;;4953105;29;20028;-82
2022/07/31 07:26:23;;;;;;;3.67;1.90;;;21.80;99.90;;;;;;4952932;28;20451;-79
2022/07/31 07:28:49;;;;;;;6.07;1.88;;;22.00;99.90;;;;;;4953022;28;20384;-79
2022/07/31 07:31:14;;;;;;;4.82;1.83;;;22.00;99.90;;;;;;4953408;29;20546;-79
2022/07/31 07:33:40;;;;;;;13.70;2.28;;;22.10;99.90;;;;;;4954784;28;20034;-79
2022/07/31 07:36:06;;;;;;;2.92;1.85;;;22.10;99.90;;;;;;4957346;29;20042;-79
2022/07/31 07:38:31;;;;;;;4.93;1.70;;;22.20;99.90;;;;;;4956834;28;20038;-79
2022/07/31 07:40:57;;;;;;;5.95;2.30;;;22.30;99.90;;;;;;4969591;28;20074;-79
2022/07/31 07:43:23;;;;;;;4.15;2.08;;;22.30;99.90;;;;;;4970217;28;20399;-79
2022/07/31 07:45:49;;;;;;;6.22;2.10;;;22.40;99.90;;;;;;4961263;28;20493;-79
2022/07/31 07:48:14;;;;;;;3.88;1.90;;;22.50;99.90;;;;;;4961341;28;20027;-79
2022/07/31 07:50:40;;;;;;;5.97;1.92;;;22.60;99.90;;;;;;4956739;28;20167;-79
2022/07/31 07:53:07;;;;;;;5.57;2.10;;;22.70;99.90;;;;;;4956856;29;20171;-79
2022/07/31 07:55:32;;;;;;;2.92;1.73;;;22.80;99.90;;;;;;4956475;29;20031;-80
2022/07/31 07:57:58;;;;;;;3.67;1.40;;;22.80;99.90;;;;;;4939979;29;20023;-79
2022/07/31 08:00:24;;;;;;;8.25;2.38;;;22.90;99.90;;;;;;4963353;28;20503;-79
2022/07/31 08:02:50;;;;;;;8.15;2.20;;;22.90;99.90;;;;;;4956572;28;20073;-79
2022/07/31 08:05:16;;;;;;;7.57;1.88;;;23.10;99.90;;;;;;4957444;28;20085;-79
2022/07/31 08:07:42;;;;;;;5.15;1.77;;;23.20;99.90;;;;;;4956830;29;20114;-79
2022/07/31 08:10:08;;;;;;;5.78;1.95;;;23.30;99.90;;;;;;4957296;29;20056;-80
2022/07/31 08:12:35;;;;;;;7.72;1.80;;;23.40;99.90;;;;;;4956763;29;20391;-79
2022/07/31 08:15:01;;;;;;;2.97;1.50;;;23.60;99.90;;;;;;4956695;29;20488;-79
2022/07/31 08:17:27;;;;;;;5.25;2.15;;;23.90;99.90;;;;;;4956921;29;20031;-80
2022/07/31 08:19:52;;;;;;;8.95;2.00;;;24.00;99.90;;;;;;4956592;29;20054;-79
2022/07/31 08:22:18;;;;;;;3.50;1.65;;;24.30;99.90;;;;;;4940736;28;20092;-79
2022/07/31 08:24:44;;;;;;;7.35;1.70;;;24.40;99.90;;;;;;4970234;28;20027;-79
2022/07/31 08:27:24;;;;;;;8.95;1.95;;;24.60;99.90;;;;;;4939964;28;20019;-79
2022/07/31 08:29:58;;;;;;;4.28;1.85;;;24.90;99.90;;;;;;4962985;28;20027;-79
2022/07/31 08:32:25;;;;;;;4.13;1.70;;;25.20;99.90;;;;;;4976771;28;20030;-80
2022/07/31 08:34:51;;;;;;;9.07;1.92;;;25.60;99.90;;;;;;4951719;29;20054;-79
2022/07/31 08:37:20;;;;;;;6.63;1.60;;;25.80;99.20;;;;;;4958096;28;20027;-79
2022/07/31 08:39:47;;;;;;;5.75;1.83;;;26.10;98.60;;;;;;4976445;28;20070;-79
2022/07/31 08:42:14;;;;;;;4.65;1.77;;;26.20;97.50;;;;;;4966874;28;20019;-79
2022/07/31 08:44:41;;;;;;;5.78;1.75;;;26.70;96.90;;;;;;4955223;28;20106;-78
2022/07/31 08:47:11;;;;;;;4.32;1.50;;;26.80;96.10;;;;;;4956790;28;20019;-79
2022/07/31 08:49:39;;;;;;;9.93;1.90;;;27.00;95.20;;;;;;4939367;28;20475;-79
2022/07/31 08:52:08;;;;;;;8.63;1.67;;;27.00;94.40;;;;;;4946091;29;20070;-77
2022/07/31 08:54:36;;;;;;;5.20;1.55;;;27.10;94.20;;;;;;4956289;28;20023;-79
2022/07/31 08:57:02;;;;;;;6.25;1.63;;;27.60;92.90;;;;;;4956516;29;20019;-79
2022/07/31 08:59:28;;;;;;;7.88;1.40;;;27.80;91.00;;;;;;4959061;28;20077;-78
2022/07/31 09:01:58;;;;;;;4.28;1.42;;;27.80;91.30;;;;;;4960072;28;20031;-79
2022/07/31 09:04:23;;;;;;;5.68;1.83;;;27.90;90.60;;;;;;4966486;28;20019;-79
2022/07/31 09:06:49;;;;;;;3.28;1.40;;;27.70;90.50;;;;;;4956380;29;20031;-78
2022/07/31 09:09:16;;;;;;;9.70;1.95;;;28.30;90.10;;;;;;4956476;29;20030;-79
2022/07/31 09:11:47;;;;;;;5.85;1.90;;;28.60;89.10;;;;;;4966559;28;20027;-78
2022/07/31 09:14:15;;;;;;;6.22;1.60;;;28.50;86.20;;;;;;4957364;28;20034;-78
2022/07/31 09:16:49;;;;;;;55.20;3.00;;;28.80;84.50;;;;;;4956608;29;20078;-78
2022/07/31 09:19:15;;;;;;;7.25;2.00;;;28.80;83.10;;;;;;4956528;29;20046;-79
2022/07/31 09:21:43;;;;;;;3.92;1.95;;;28.70;80.60;;;;;;4955923;29;20435;-78
2022/07/31 09:24:10;;;;;;;3.20;1.33;;;29.00;80.70;;;;;;4970320;28;20054;-78
2022/07/31 09:26:39;;;;;;;4.68;1.35;;;29.30;78.20;;;;;;4962463;28;20031;-79
2022/07/31 09:29:07;;;;;;;3.30;1.25;;;29.40;77.60;;;;;;4975581;28;20026;-86
2022/07/31 09:31:37;;;;;;;4.00;1.40;;;29.50;74.50;;;;;;4973996;28;20015;-83
2022/07/31 09:34:03;;;;;;;6.30;1.60;;;29.60;73.00;;;;;;4968034;28;20019;-88
2022/07/31 09:36:29;;;;;;;5.00;1.92;;;29.70;73.30;;;;;;4961140;28;20031;-85
2022/07/31 09:38:55;;;;;;;5.13;1.70;;;29.80;73.20;;;;;;4955565;29;20074;-83
2022/07/31 09:41:23;;;;;;;6.75;1.60;;;30.00;73.10;;;;;;4958416;28;20027;-86
2022/07/31 09:43:59;;;;;;;5.25;1.42;;;29.90;71.80;;;;;;4955988;28;20547;-84
2022/07/31 09:46:26;;;;;;;8.50;1.50;;;30.10;71.80;;;;;;4948356;29;20034;-79
2022/07/31 09:48:55;;;;;;;14.18;2.00;;;30.40;68.90;;;;;;4964822;28;20019;-79
2022/07/31 09:51:21;;;;;;;6.53;2.05;;;30.50;68.60;;;;;;4963743;28;20059;-79
2022/07/31 09:53:52;;;;;;;5.63;1.90;;;30.60;68.30;;;;;;4967435;28;20031;-80
2022/07/31 09:56:33;;;;;;;16.95;2.03;;;30.60;67.70;;;;;;4974346;28;20035;-75
2022/07/31 09:58:59;;;;;;;6.57;1.47;;;30.60;65.60;;;;;;4974438;28;20085;-74
2022/07/31 10:01:25;;;;;;;4.25;1.30;;;30.50;63.50;;;;;;4965339;28;20035;-75
2022/07/31 10:03:54;;;;;;;8.40;1.58;;;30.60;64.20;;;;;;4955220;29;20089;-74
2022/07/31 10:06:24;;;;;;;4.03;1.70;;;30.80;63.60;;;;;;4971789;28;20030;-76
2022/07/31 10:08:51;;;;;;;9.20;2.38;;;31.00;64.00;;;;;;4966744;28;20023;-75
2022/07/31 10:11:20;;;;;;;10.50;2.17;;;30.90;63.10;;;;;;4962050;28;20027;-75
2022/07/31 10:13:49;;;;;;;6.45;1.67;;;30.90;62.80;;;;;;4943002;29;20083;-75
2022/07/31 10:16:16;;;;;;;18.30;2.15;;;31.20;62.70;;;;;;4955017;29;20126;-74
2022/07/31 10:18:46;;;;;;;9.85;1.38;;;31.10;60.10;;;;;;4955293;29;20098;-75
2022/07/31 10:21:16;;;;;;;7.07;1.40;;;30.90;60.70;;;;;;4960430;28;20027;-75
2022/07/31 10:23:43;;;;;;;3.88;1.58;;;31.40;60.50;;;;;;4964805;28;20031;-74
2022/07/31 10:26:09;;;;;;;5.78;1.40;;;31.70;58.70;;;;;;4957122;28;20026;-74
2022/07/31 10:28:38;;;;;;;4.82;1.63;;;31.70;55.70;;;;;;4957534;28;20432;-74
2022/07/31 10:31:05;;;;;;;3.30;1.42;;;31.80;55.70;;;;;;4954834;29;20024;-74
2022/07/31 10:33:31;;;;;;;12.88;1.58;;;31.60;56.00;;;;;;4954886;29;20058;-75
2022/07/31 10:36:36;;;;;;;6.18;1.42;;;31.50;56.50;;;;;;4955102;28;20027;-74
2022/07/31 10:39:30;;;;;;;3.70;1.38;;;31.80;56.50;;;;;;4926537;29;20431;-80
2022/07/31 10:42:06;;;;;;;4.72;1.40;;;31.60;56.20;;;;;;4922580;29;20532;-80
2022/07/31 10:45:01;;;;;;;8.45;1.30;;;31.80;57.20;;;;;;4919214;29;20036;-77
2022/07/31 10:47:27;;;;;;;3.65;1.70;;;31.70;54.80;;;;;;4910053;29;20480;-78
2022/07/31 10:49:53;;;;;;;3.55;1.30;;;31.60;55.10;;;;;;4916086;29;20043;-78
2022/07/31 10:52:36;;;;;;;5.13;1.30;;;31.70;54.00;;;;;;4940719;29;20073;-76
2022/07/31 10:55:18;;;;;;;2.65;0.90;;;31.70;54.00;;;;;;4945623;29;20032;-78
2022/07/31 10:57:43;;;;;;;3.17;0.90;;;31.90;52.20;;;;;;4937626;29;20145;-77
2022/07/31 11:00:11;;;;;;;2.97;1.25;;;31.80;52.20;;;;;;4932810;29;20592;-77
2022/07/31 11:02:37;;;;;;;4.47;1.70;;;32.10;52.30;;;;;;4935041;29;20040;-77
2022/07/31 11:05:22;;;;;;;8.95;1.52;;;32.00;51.40;;;;;;4935452;29;20107;-78
2022/07/31 11:08:00;;;;;;;3.95;1.17;;;32.00;52.00;;;;;;4931684;29;20491;-78
2022/07/31 11:10:25;;;;;;;3.42;1.30;;;32.10;50.40;;;;;;4948715;28;20286;-76
2022/07/31 11:13:07;;;;;;;3.80;1.30;;;32.20;50.00;;;;;;4953439;29;20070;-77
2022/07/31 11:15:33;;;;;;;;;;;31.80;48.40;;;;;;4951864;29;20023;-78
2022/07/31 11:18:18;;;;;;;2.70;1.23;;;31.70;49.20;;;;;;4955399;28;19929;-78
2022/07/31 11:20:48;;;;;;;4.03;1.30;;;31.70;50.10;;;;;;4954435;28;20041;-78
2022/07/31 11:23:16;;;;;;;2.92;1.42;;;31.60;48.80;;;;;;4954612;28;20455;-78
2022/07/31 11:25:47;;;;;;;4.70;1.05;;;31.90;49.00;;;;;;4953448;28;20455;-78
2022/07/31 11:28:17;;;;;;;9.98;1.33;;;32.20;48.40;;;;;;4953497;28;20035;-78
2022/07/31 11:30:59;;;;;;;4.83;1.00;;;32.30;48.40;;;;;;4953669;28;20031;-77
2022/07/31 11:33:42;;;;;;;3.83;1.27;;;32.40;48.90;;;;;;4954138;28;20098;-77
2022/07/31 11:36:19;;;;;;;2.75;1.20;;;32.40;47.10;;;;;;4951832;28;20037;-77
2022/07/31 11:38:51;;;;;;;3.05;1.38;;;32.40;47.00;;;;;;4951795;28;20110;-79
2022/07/31 11:41:20;;;;;;;7.28;1.50;;;31.90;46.80;;;;;;4952798;28;20086;-79
2022/07/31 11:43:47;;;;;;;2.25;0.93;;;31.90;47.80;;;;;;4952669;28;20030;-79
2022/07/31 11:46:25;;;;;;;2.47;1.42;;;32.10;46.90;;;;;;4952650;28;20027;-79
2022/07/31 11:48:51;;;;;;;3.92;1.20;;;32.10;50.90;;;;;;4951641;29;20030;-79
2022/07/31 11:51:18;;;;;;;9.15;1.60;;;32.30;47.60;;;;;;4965700;28;20051;-79
2022/07/31 11:53:44;;;;;;;2.20;1.05;;;32.60;46.60;;;;;;4960723;28;20038;-81
2022/07/31 11:56:10;;;;;;;5.13;1.10;;;32.70;45.80;;;;;;4957714;28;20047;-82
2022/07/31 11:58:37;;;;;;;4.22;1.23;;;32.40;45.30;;;;;;4952413;28;20035;-82
2022/07/31 12:01:04;;;;;;;3.58;1.38;;;32.80;44.80;;;;;;4978853;28;20027;-82
2022/07/31 12:03:35;;;;;;;4.53;1.40;;;33.00;44.50;;;;;;4957455;28;20069;-83
2022/07/31 12:06:03;;;;;;;3.90;1.05;;;32.90;44.50;;;;;;4962314;28;20019;-83
2022/07/31 12:08:29;;;;;;;2.63;1.27;;;33.10;44.00;;;;;;4952917;29;20042;-83
2022/07/31 12:10:56;;;;;;;2.25;1.17;;;33.20;42.70;;;;;;4959887;28;20518;-83
2022/07/31 12:13:23;;;;;;;1.67;1.00;;;32.80;43.00;;;;;;4953359;28;20028;-82
2022/07/31 12:16:02;;;;;;;2.78;1.02;;;33.00;42.90;;;;;;4954348;28;20035;-83
2022/07/31 12:18:29;;;;;;;3.95;1.38;;;33.00;41.90;;;;;;4965707;28;20050;-83
2022/07/31 12:20:56;;;;;;;1.42;1.00;;;33.00;41.30;;;;;;4963498;28;20026;-83
2022/07/31 12:23:23;;;;;;;4.30;1.23;;;32.80;42.30;;;;;;4976076;28;20034;-83
2022/07/31 12:25:51;;;;;;;3.45;1.20;;;33.00;41.50;;;;;;4963612;28;20022;-83
2022/07/31 12:28:17;;;;;;;4.78;2.75;;;32.80;42.30;;;;;;4973083;28;20444;-82
2022/07/31 12:30:56;;;;;;;2.22;1.20;;;33.00;42.90;;;;;;4957587;28;20070;-82
2022/07/31 12:33:21;;;;;;;2.80;1.20;;;33.20;41.50;;;;;;4957106;29;20077;-83
2022/07/31 12:35:47;;;;;;;4.53;1.42;;;33.30;40.50;;;;;;4957547;29;20111;-83
2022/07/31 12:38:25;;;;;;;5.32;1.25;;;33.60;41.90;;;;;;4957383;29;20031;-84
2022/07/31 12:41:04;;;;;;;4.43;1.40;;;33.50;40.10;;;;;;4957185;28;20023;-83
2022/07/31 12:43:30;;;;;;;2.80;1.25;;;33.00;40.60;;;;;;4957119;28;20053;-83
2022/07/31 12:45:59;;;;;;;3.90;1.23;;;33.10;41.00;;;;;;4967007;28;20027;-84
2022/07/31 12:48:26;;;;;;;3.05;0.98;;;33.10;40.70;;;;;;4965418;28;20035;-83